Time,TemperatureF,DewpointF,PressureIn,WindDirection,WindDirectionDegrees,WindSpeedMPH,WindSpeedGustMPH,Humidity,HourlyPrecipIn,Conditions,Clouds,dailyrainin,SoftwareType,DateUTC
2013-04-09 00:00:00,42.3,29.8,30.36,ENE,70,2.2,2.2,61,0.00,,,0.00,VWS V13.01,2013-04-09 07:00:00,
2013-04-09 00:05:00,42.1,30.4,30.36,ENE,70,0.0,2.7,63,0.00,,,0.00,VWS V13.01,2013-04-09 07:05:00,
2013-04-09 00:10:00,42.3,31.0,30.36,ENE,70,0.0,0.0,64,0.00,,,0.00,VWS V13.01,2013-04-09 07:10:00,
2013-04-09 00:15:00,42.3,31.7,30.36,ENE,70,0.0,0.0,66,0.00,,,0.00,VWS V13.01,2013-04-09 07:15:00,
2013-04-09 00:20:00,42.3,31.7,30.33,ENE,70,0.0,0.0,66,0.00,,,0.00,VWS V13.01,2013-04-09 07:20:00,
2013-04-09 00:25:00,42.3,32.8,30.33,ENE,70,3.6,3.6,69,0.00,,,0.00,VWS V13.01,2013-04-09 07:25:00,
2013-04-09 00:30:00,42.3,33.5,30.33,ENE,70,2.2,2.2,71,0.00,,,0.00,VWS V13.01,2013-04-09 07:30:00,
2013-04-09 00:35:00,42.3,33.5,30.33,ENE,70,3.1,3.1,71,0.00,,,0.00,VWS V13.01,2013-04-09 07:35:00,
2013-04-09 00:40:00,42.3,33.9,30.33,ENE,70,4.0,4.0,72,0.00,,,0.00,VWS V13.01,2013-04-09 07:40:00,
2013-04-09 00:45:00,42.3,33.9,30.33,ENE,70,2.2,2.2,72,0.00,,,0.00,VWS V13.01,2013-04-09 07:45:00,
2013-04-09 00:50:00,42.4,34.4,30.33,ENE,70,2.2,2.7,73,0.00,,,0.00,VWS V13.01,2013-04-09 07:50:00,
2013-04-09 00:55:00,42.4,34.4,30.33,ENE,70,0.0,0.0,73,0.00,,,0.00,VWS V13.01,2013-04-09 07:55:00,
2013-04-09 01:00:00,42.4,34.4,30.33,ENE,70,2.2,3.1,73,0.00,,,0.00,VWS V13.01,2013-04-09 08:00:00,
2013-04-09 01:05:00,42.3,34.2,30.33,ENE,70,0.0,0.0,73,0.00,,,0.00,VWS V13.01,2013-04-09 08:05:00,
2013-04-09 01:10:00,42.4,34.8,30.33,ENE,70,0.0,0.0,74,0.00,,,0.00,VWS V13.01,2013-04-09 08:10:00,
2013-04-09 01:15:00,42.3,34.6,30.33,ENE,70,0.0,0.0,74,0.00,,,0.00,VWS V13.01,2013-04-09 08:15:00,
2013-04-09 01:20:00,42.4,34.8,30.36,ENE,70,0.0,0.0,74,0.00,,,0.00,VWS V13.01,2013-04-09 08:20:00,
2013-04-09 01:25:00,42.4,34.8,30.36,ENE,70,0.0,0.0,74,0.00,,,0.00,VWS V13.01,2013-04-09 08:25:00,
2013-04-09 01:30:00,42.3,34.6,30.36,ENE,70,0.0,0.0,74,0.00,,,0.00,VWS V13.01,2013-04-09 08:30:00,
2013-04-09 01:35:00,42.3,34.9,30.36,ENE,70,0.0,0.0,75,0.00,,,0.00,VWS V13.01,2013-04-09 08:35:00,
2013-04-09 01:40:00,42.3,34.9,30.36,ENE,70,0.0,0.0,75,0.00,,,0.00,VWS V13.01,2013-04-09 08:40:00,
2013-04-09 01:45:00,42.3,34.9,30.36,ENE,70,0.0,0.0,75,0.00,,,0.00,VWS V13.01,2013-04-09 08:45:00,
2013-04-09 01:50:00,42.4,35.4,30.36,ENE,70,2.2,2.2,76,0.00,,,0.00,VWS V13.01,2013-04-09 08:50:00,
2013-04-09 01:55:00,42.4,35.4,30.36,ENE,70,0.0,0.0,76,0.00,,,0.00,VWS V13.01,2013-04-09 08:55:00,
2013-04-09 02:00:00,42.4,35.4,30.36,ENE,70,0.0,0.0,76,0.00,,,0.00,VWS V13.01,2013-04-09 09:00:00,
2013-04-09 02:05:00,42.4,35.8,30.36,ENE,70,2.2,2.2,77,0.00,,,0.00,VWS V13.01,2013-04-09 09:05:00,
2013-04-09 02:10:00,42.4,35.8,30.36,ENE,70,2.7,2.7,77,0.00,,,0.00,VWS V13.01,2013-04-09 09:10:00,
2013-04-09 02:15:00,42.3,35.6,30.36,ENE,70,0.0,0.0,77,0.00,,,0.00,VWS V13.01,2013-04-09 09:15:00,
2013-04-09 02:20:00,42.3,35.6,30.36,ENE,70,0.0,0.0,77,0.00,,,0.00,VWS V13.01,2013-04-09 09:20:00,
2013-04-09 02:25:00,42.1,35.4,30.36,ENE,70,0.0,0.0,77,0.00,,,0.00,VWS V13.01,2013-04-09 09:25:00,
2013-04-09 02:30:00,41.9,35.2,30.36,ENE,70,0.0,0.0,77,0.00,,,0.00,VWS V13.01,2013-04-09 09:30:00,
2013-04-09 02:35:00,41.7,35.0,30.33,ENE,70,0.0,0.0,77,0.00,,,0.00,VWS V13.01,2013-04-09 09:35:00,
2013-04-09 02:40:00,41.7,35.0,30.33,ENE,70,0.0,0.0,77,0.00,,,0.00,VWS V13.01,2013-04-09 09:40:00,
2013-04-09 02:45:00,41.7,35.0,30.33,ENE,70,0.0,0.0,77,0.00,,,0.00,VWS V13.01,2013-04-09 09:45:00,
2013-04-09 02:50:00,41.5,34.9,30.33,ENE,70,2.2,2.2,77,0.00,,,0.00,VWS V13.01,2013-04-09 09:50:00,
2013-04-09 02:55:00,41.5,34.9,30.33,ENE,70,3.1,3.6,77,0.00,,,0.00,VWS V13.01,2013-04-09 09:55:00,
2013-04-09 03:00:00,41.5,34.9,30.33,ENE,70,3.1,4.0,77,0.00,,,0.00,VWS V13.01,2013-04-09 10:00:00,
2013-04-09 03:05:00,41.5,35.2,30.33,ENE,70,2.7,2.7,78,0.00,,,0.00,VWS V13.01,2013-04-09 10:05:00,
2013-04-09 03:10:00,41.7,35.4,30.33,ENE,70,3.1,3.6,78,0.00,,,0.00,VWS V13.01,2013-04-09 10:10:00,
2013-04-09 03:15:00,41.7,35.4,30.33,ENE,70,3.1,3.1,78,0.00,,,0.00,VWS V13.01,2013-04-09 10:15:00,
2013-04-09 03:20:00,41.7,35.4,30.33,ENE,70,0.0,0.0,78,0.00,,,0.00,VWS V13.01,2013-04-09 10:20:00,
2013-04-09 03:25:00,41.7,35.4,30.33,ENE,70,0.0,0.0,78,0.00,,,0.00,VWS V13.01,2013-04-09 10:25:00,
2013-04-09 03:30:00,41.7,35.7,30.33,ENE,70,0.0,0.0,79,0.00,,,0.00,VWS V13.01,2013-04-09 10:30:00,
2013-04-09 03:35:00,41.7,35.7,30.33,ENE,70,3.1,3.1,79,0.00,,,0.00,VWS V13.01,2013-04-09 10:35:00,
2013-04-09 03:40:00,41.7,35.7,30.33,ENE,70,3.6,3.6,79,0.00,,,0.00,VWS V13.01,2013-04-09 10:40:00,
2013-04-09 03:45:00,41.9,36.2,30.33,ENE,70,2.7,3.6,80,0.00,,,0.00,VWS V13.01,2013-04-09 10:45:00,
2013-04-09 03:50:00,41.9,36.2,30.33,ENE,70,2.7,3.1,80,0.00,,,0.00,VWS V13.01,2013-04-09 10:50:00,
2013-04-09 03:55:00,41.9,36.2,30.33,ENE,70,0.0,0.0,80,0.00,,,0.00,VWS V13.01,2013-04-09 10:55:00,
2013-04-09 04:00:00,41.9,36.2,30.33,ENE,70,0.0,0.0,80,0.00,,,0.00,VWS V13.01,2013-04-09 11:00:00,
2013-04-09 04:05:00,41.9,36.2,30.33,ENE,70,3.1,3.1,80,0.00,,,0.00,VWS V13.01,2013-04-09 11:05:00,
2013-04-09 04:10:00,42.1,36.4,30.33,ENE,70,4.5,4.5,80,0.00,,,0.00,VWS V13.01,2013-04-09 11:10:00,
2013-04-09 04:15:00,42.1,36.7,30.33,ENE,70,3.1,3.1,81,0.00,,,0.00,VWS V13.01,2013-04-09 11:15:00,
2013-04-09 04:20:00,42.1,36.7,30.33,ENE,70,2.2,2.2,81,0.00,,,0.00,VWS V13.01,2013-04-09 11:20:00,
2013-04-09 04:25:00,42.3,36.9,30.33,ENE,70,0.0,0.0,81,0.00,,,0.00,VWS V13.01,2013-04-09 11:25:00,
2013-04-09 04:30:00,42.4,37.3,30.33,ENE,70,0.0,0.0,82,0.00,,,0.00,VWS V13.01,2013-04-09 11:30:00,
2013-04-09 04:35:00,42.3,36.9,30.33,ENE,70,0.0,0.0,81,0.00,,,0.00,VWS V13.01,2013-04-09 11:35:00,
2013-04-09 04:41:00,42.3,36.9,30.33,ENE,70,2.7,3.1,81,0.00,,,0.00,VWS V13.01,2013-04-09 11:41:00,
2013-04-09 04:46:00,42.3,36.9,30.33,ENE,70,0.0,0.0,81,0.00,,,0.00,VWS V13.01,2013-04-09 11:46:00,
2013-04-09 04:51:00,42.4,37.0,30.33,ENE,70,0.0,0.0,81,0.00,,,0.00,VWS V13.01,2013-04-09 11:51:00,
2013-04-09 04:56:00,42.4,37.3,30.33,ENE,70,2.7,3.1,82,0.00,,,0.00,VWS V13.01,2013-04-09 11:56:00,
2013-04-09 05:00:00,42.4,37.0,30.33,ENE,70,2.7,3.1,81,0.00,,,0.00,VWS V13.01,2013-04-09 12:00:00,
2013-04-09 05:05:00,42.4,37.0,30.33,ENE,73,2.7,3.6,81,0.00,,,0.00,VWS V13.01,2013-04-09 12:05:00,
2013-04-09 05:10:00,42.4,36.7,30.33,ENE,73,3.1,3.1,80,0.00,,,0.00,VWS V13.01,2013-04-09 12:10:00,
2013-04-09 05:15:00,42.4,36.4,30.33,ENE,73,3.1,3.1,79,0.00,,,0.00,VWS V13.01,2013-04-09 12:15:00,
2013-04-09 05:20:00,42.4,36.4,30.33,ENE,73,0.0,5.8,79,0.00,,,0.00,VWS V13.01,2013-04-09 12:20:00,
2013-04-09 05:26:00,42.4,36.1,30.33,ENE,73,0.0,0.0,78,0.00,,,0.00,VWS V13.01,2013-04-09 12:26:00,
2013-04-09 05:31:00,42.6,36.2,30.33,ENE,73,0.0,0.0,78,0.00,,,0.00,VWS V13.01,2013-04-09 12:31:00,
2013-04-09 05:36:00,42.8,36.1,30.36,ENE,73,0.0,0.0,77,0.00,,,0.00,VWS V13.01,2013-04-09 12:36:00,
2013-04-09 05:41:00,42.8,36.1,30.36,ENE,73,2.7,2.7,77,0.00,,,0.00,VWS V13.01,2013-04-09 12:41:00,
2013-04-09 05:46:00,42.8,36.1,30.36,ENE,73,2.2,3.6,77,0.00,,,0.00,VWS V13.01,2013-04-09 12:46:00,
2013-04-09 05:51:00,42.8,36.1,30.33,ENE,73,2.7,2.7,77,0.00,,,0.00,VWS V13.01,2013-04-09 12:51:00,
2013-04-09 05:57:00,42.8,36.1,30.33,ENE,73,0.0,0.0,77,0.00,,,0.00,VWS V13.01,2013-04-09 12:57:00,
2013-04-09 06:02:00,43.0,36.3,30.33,ENE,73,0.0,0.0,77,0.00,,,0.00,VWS V13.01,2013-04-09 13:02:00,
2013-04-09 06:07:00,43.0,36.0,30.33,ENE,73,0.0,0.0,76,0.00,,,0.00,VWS V13.01,2013-04-09 13:07:00,
2013-04-09 06:12:00,43.0,36.0,30.33,ENE,73,0.0,0.0,76,0.00,,,0.00,VWS V13.01,2013-04-09 13:12:00,
2013-04-09 06:17:00,43.0,36.0,30.33,ENE,73,2.7,4.0,76,0.00,,,0.00,VWS V13.01,2013-04-09 13:17:00,
2013-04-09 06:22:00,43.0,36.0,30.33,ENE,73,0.0,3.1,76,0.00,,,0.00,VWS V13.01,2013-04-09 13:22:00,
2013-04-09 06:27:00,43.2,36.1,30.33,ENE,73,0.0,0.0,76,0.00,,,0.00,VWS V13.01,2013-04-09 13:27:00,
2013-04-09 06:32:00,43.2,36.1,30.33,ENE,73,0.0,2.2,76,0.00,,,0.00,VWS V13.01,2013-04-09 13:32:00,
2013-04-09 06:37:00,43.2,36.1,30.33,ENE,73,0.0,0.0,76,0.00,,,0.00,VWS V13.01,2013-04-09 13:37:00,
2013-04-09 06:42:00,43.2,36.1,30.33,ENE,73,0.0,0.0,76,0.00,,,0.00,VWS V13.01,2013-04-09 13:42:00,
2013-04-09 06:47:00,43.2,36.1,30.33,ENE,73,0.0,0.0,76,0.00,,,0.00,VWS V13.01,2013-04-09 13:47:00,
2013-04-09 06:52:00,43.3,36.3,30.36,ENE,73,0.0,2.2,76,0.00,,,0.00,VWS V13.01,2013-04-09 13:52:00,
2013-04-09 06:57:00,43.3,36.3,30.36,ENE,73,2.7,4.0,76,0.00,,,0.00,VWS V13.01,2013-04-09 13:57:00,
2013-04-09 07:02:00,43.5,36.1,30.36,ENE,73,0.0,0.0,75,0.00,,,0.00,VWS V13.01,2013-04-09 14:02:00,
2013-04-09 07:07:00,43.5,36.1,30.33,ENE,73,0.0,2.7,75,0.00,,,0.00,VWS V13.01,2013-04-09 14:07:00,
2013-04-09 07:12:00,43.5,36.5,30.33,ENE,73,0.0,0.0,76,0.00,,,0.00,VWS V13.01,2013-04-09 14:12:00,
2013-04-09 07:18:00,43.7,36.6,30.33,ENE,73,0.0,0.0,76,0.00,,,0.00,VWS V13.01,2013-04-09 14:18:00,
2013-04-09 07:23:00,43.9,36.8,30.33,ENE,73,0.0,2.2,76,0.00,,,0.00,VWS V13.01,2013-04-09 14:23:00,
2013-04-09 07:28:00,44.1,37.0,30.33,ENE,73,0.0,0.0,76,0.00,,,0.00,VWS V13.01,2013-04-09 14:28:00,
2013-04-09 07:33:00,44.2,37.2,30.33,ENE,73,2.2,2.7,76,0.00,,,0.00,VWS V13.01,2013-04-09 14:33:00,
2013-04-09 07:38:00,44.6,37.2,30.33,ENE,73,0.0,0.0,75,0.00,,,0.00,VWS V13.01,2013-04-09 14:38:00,
2013-04-09 07:43:00,45.0,37.5,30.33,ENE,73,0.0,0.0,75,0.00,,,0.00,VWS V13.01,2013-04-09 14:43:00,
2013-04-09 07:48:00,45.3,37.9,30.33,ENE,73,0.0,0.0,75,0.00,,,0.00,VWS V13.01,2013-04-09 14:48:00,
2013-04-09 07:53:00,45.3,37.9,30.36,ENE,73,0.0,0.0,75,0.00,,,0.00,VWS V13.01,2013-04-09 14:53:00,
2013-04-09 07:58:00,45.3,38.2,30.36,ENE,73,0.0,0.0,76,0.00,,,0.00,VWS V13.01,2013-04-09 14:58:00,
2013-04-09 08:03:00,45.3,37.9,30.36,ENE,73,0.0,0.0,75,0.00,,,0.00,VWS V13.01,2013-04-09 15:03:00,
2013-04-09 08:08:00,45.3,37.5,30.36,ENE,73,2.7,2.7,74,0.00,,,0.00,VWS V13.01,2013-04-09 15:08:00,
2013-04-09 08:13:00,45.3,36.5,30.36,ENE,73,2.2,2.2,71,0.00,,,0.00,VWS V13.01,2013-04-09 15:13:00,
2013-04-09 08:18:00,45.5,36.3,30.36,ENE,73,0.0,0.0,70,0.00,,,0.00,VWS V13.01,2013-04-09 15:18:00,
2013-04-09 08:23:00,45.5,35.6,30.36,ENE,73,0.0,0.0,68,0.00,,,0.00,VWS V13.01,2013-04-09 15:23:00,
2013-04-09 08:28:00,45.7,34.6,30.36,ENE,73,3.1,3.1,65,0.00,,,0.00,VWS V13.01,2013-04-09 15:28:00,
2013-04-09 08:33:00,46.0,33.8,30.36,ENE,73,0.0,0.0,62,0.00,,,0.00,VWS V13.01,2013-04-09 15:33:00,
2013-04-09 08:38:00,46.4,33.7,30.36,ENE,73,0.0,0.0,61,0.00,,,0.00,VWS V13.01,2013-04-09 15:38:00,
2013-04-09 08:43:00,46.6,33.5,30.36,ENE,73,0.0,2.2,60,0.00,,,0.00,VWS V13.01,2013-04-09 15:43:00,
2013-04-09 08:48:00,46.8,33.2,30.36,ENE,73,3.6,3.6,59,0.00,,,0.00,VWS V13.01,2013-04-09 15:48:00,
2013-04-09 08:53:00,46.8,30.5,30.36,ENE,73,4.0,5.8,53,0.00,,,0.00,VWS V13.01,2013-04-09 15:53:00,
2013-04-09 08:58:00,46.8,29.1,30.36,ENE,73,3.6,4.0,50,0.00,,,0.00,VWS V13.01,2013-04-09 15:58:00,
2013-04-09 09:03:00,46.8,28.6,30.36,ENE,73,3.1,5.8,49,0.00,,,0.00,VWS V13.01,2013-04-09 16:03:00,
2013-04-09 09:08:00,47.1,28.5,30.36,ENE,73,3.1,6.3,48,0.00,,,0.00,VWS V13.01,2013-04-09 16:08:00,
2013-04-09 09:13:00,47.8,28.6,30.36,ENE,73,2.7,4.9,47,0.00,,,0.00,VWS V13.01,2013-04-09 16:13:00,
2013-04-09 09:18:00,48.7,28.4,30.33,East,92,3.1,3.6,45,0.00,,,0.00,VWS V13.01,2013-04-09 16:18:00,
2013-04-09 09:23:00,49.5,26.8,30.33,East,96,8.1,11.0,41,0.00,,,0.00,VWS V13.01,2013-04-09 16:23:00,
2013-04-09 09:28:00,49.6,26.3,30.33,East,96,7.6,7.6,40,0.00,,,0.00,VWS V13.01,2013-04-09 16:28:00,
2013-04-09 09:33:00,49.8,26.5,30.33,East,96,5.4,5.4,40,0.00,,,0.00,VWS V13.01,2013-04-09 16:33:00,
2013-04-09 09:38:00,50.4,27.0,30.33,East,96,4.9,4.9,40,0.00,,,0.00,VWS V13.01,2013-04-09 16:38:00,
2013-04-09 09:43:00,50.5,26.5,30.33,East,96,3.1,4.9,39,0.00,,,0.00,VWS V13.01,2013-04-09 16:43:00,
2013-04-09 09:48:00,50.5,26.5,30.36,East,96,4.0,5.4,39,0.00,,,0.00,VWS V13.01,2013-04-09 16:48:00,
2013-04-09 09:53:00,50.4,26.4,30.36,East,96,5.8,5.8,39,0.00,,,0.00,VWS V13.01,2013-04-09 16:53:00,
2013-04-09 09:58:00,50.4,25.7,30.36,East,96,5.4,5.4,38,0.00,,,0.00,VWS V13.01,2013-04-09 16:58:00,
2013-04-09 10:03:00,50.7,26.7,30.36,East,96,3.6,4.0,39,0.00,,,0.00,VWS V13.01,2013-04-09 17:03:00,
2013-04-09 10:09:00,51.3,27.2,30.36,East,96,4.5,4.9,39,0.00,,,0.00,VWS V13.01,2013-04-09 17:09:00,
2013-04-09 10:14:00,51.6,26.9,30.36,East,96,3.1,4.9,38,0.00,,,0.00,VWS V13.01,2013-04-09 17:14:00,
2013-04-09 10:19:00,51.8,26.4,30.36,East,96,4.0,4.0,37,0.00,,,0.00,VWS V13.01,2013-04-09 17:19:00,
2013-04-09 10:25:00,52.2,26.7,30.36,East,96,5.8,6.3,37,0.00,,,0.00,VWS V13.01,2013-04-09 17:25:00,
2013-04-09 10:30:00,52.7,27.8,30.36,East,96,4.0,5.8,38,0.00,,,0.00,VWS V13.01,2013-04-09 17:30:00,
2013-04-09 10:35:00,53.2,27.7,30.36,East,96,4.0,5.8,37,0.00,,,0.00,VWS V13.01,2013-04-09 17:35:00,
2013-04-09 10:40:00,53.4,27.8,30.36,East,96,6.7,6.7,37,0.00,,,0.00,VWS V13.01,2013-04-09 17:40:00,
2013-04-09 10:45:00,54.0,28.3,30.36,East,96,3.6,3.6,37,0.00,,,0.00,VWS V13.01,2013-04-09 17:45:00,
2013-04-09 10:50:00,54.5,28.1,30.36,East,96,2.7,3.6,36,0.00,,,0.00,VWS V13.01,2013-04-09 17:50:00,
2013-04-09 10:55:00,54.7,28.3,30.36,East,96,2.7,3.1,36,0.00,,,0.00,VWS V13.01,2013-04-09 17:55:00,
2013-04-09 11:00:00,54.5,28.1,30.36,East,96,6.3,6.3,36,0.00,,,0.00,VWS V13.01,2013-04-09 18:00:00,
2013-04-09 11:05:00,53.8,27.5,30.36,East,96,6.3,6.3,36,0.00,,,0.00,VWS V13.01,2013-04-09 18:05:00,
2013-04-09 11:10:00,54.1,27.8,30.36,East,96,3.1,4.0,36,0.00,,,0.00,VWS V13.01,2013-04-09 18:10:00,
2013-04-09 11:15:00,54.1,27.8,30.36,East,96,4.0,6.3,36,0.00,,,0.00,VWS V13.01,2013-04-09 18:15:00,
2013-04-09 11:20:00,54.5,28.1,30.36,East,96,2.7,2.7,36,0.00,,,0.00,VWS V13.01,2013-04-09 18:20:00,
2013-04-09 11:25:00,54.7,28.3,30.36,East,96,2.7,3.6,36,0.00,,,0.00,VWS V13.01,2013-04-09 18:25:00,
2013-04-09 11:30:00,55.0,28.6,30.36,East,96,3.1,4.0,36,0.00,,,0.00,VWS V13.01,2013-04-09 18:30:00,
2013-04-09 11:35:00,55.6,29.1,30.36,East,96,3.1,3.1,36,0.00,,,0.00,VWS V13.01,2013-04-09 18:35:00,
2013-04-09 11:40:00,55.9,29.4,30.36,East,96,0.0,0.0,36,0.00,,,0.00,VWS V13.01,2013-04-09 18:40:00,
2013-04-09 11:45:00,55.8,29.2,30.36,East,96,0.0,0.0,36,0.00,,,0.00,VWS V13.01,2013-04-09 18:45:00,
2013-04-09 11:50:00,55.9,29.4,30.36,East,96,5.4,5.4,36,0.00,,,0.00,VWS V13.01,2013-04-09 18:50:00,
2013-04-09 11:55:00,55.8,29.2,30.36,East,96,3.1,3.1,36,0.00,,,0.00,VWS V13.01,2013-04-09 18:55:00,
2013-04-09 12:00:00,55.9,29.4,30.36,East,96,4.5,4.9,36,0.00,,,0.00,VWS V13.01,2013-04-09 19:00:00,
2013-04-09 12:05:00,55.8,29.2,30.36,East,96,5.8,5.8,36,0.00,,,0.00,VWS V13.01,2013-04-09 19:05:00,
2013-04-09 12:10:00,55.8,29.2,30.36,East,96,2.2,2.2,36,0.00,,,0.00,VWS V13.01,2013-04-09 19:10:00,
2013-04-09 12:15:00,56.1,29.5,30.36,East,96,4.0,4.0,36,0.00,,,0.00,VWS V13.01,2013-04-09 19:15:00,
2013-04-09 12:20:00,57.0,30.4,30.36,East,96,2.7,2.7,36,0.00,,,0.00,VWS V13.01,2013-04-09 19:20:00,
2013-04-09 12:25:00,57.9,30.5,30.36,East,96,2.7,3.1,35,0.00,,,0.00,VWS V13.01,2013-04-09 19:25:00,
2013-04-09 12:30:00,58.3,30.8,30.36,East,96,0.0,3.1,35,0.00,,,0.00,VWS V13.01,2013-04-09 19:30:00,
2013-04-09 12:35:00,59.2,31.6,30.36,East,96,4.0,5.4,35,0.00,,,0.00,VWS V13.01,2013-04-09 19:35:00,
2013-04-09 12:40:00,60.3,32.5,30.36,East,96,0.0,4.0,35,0.00,,,0.00,VWS V13.01,2013-04-09 19:40:00,
2013-04-09 12:45:00,61.0,32.4,30.36,East,96,5.4,5.4,34,0.00,,,0.00,VWS V13.01,2013-04-09 19:45:00,
2013-04-09 12:50:00,61.3,32.8,30.33,East,96,3.1,3.6,34,0.00,,,0.00,VWS V13.01,2013-04-09 19:50:00,
2013-04-09 12:55:00,61.0,32.4,30.33,East,96,2.7,3.1,34,0.00,,,0.00,VWS V13.01,2013-04-09 19:55:00,
2013-04-09 13:00:00,61.2,32.6,30.33,East,96,3.1,4.0,34,0.00,,,0.00,VWS V13.01,2013-04-09 20:00:00,
2013-04-09 13:05:00,61.2,32.6,30.33,East,96,2.7,3.1,34,0.00,,,0.00,VWS V13.01,2013-04-09 20:05:00,
2013-04-09 13:10:00,61.0,32.4,30.33,East,96,2.7,2.7,34,0.00,,,0.00,VWS V13.01,2013-04-09 20:10:00,
2013-04-09 13:15:00,60.4,32.7,30.33,East,96,0.0,3.1,35,0.00,,,0.00,VWS V13.01,2013-04-09 20:15:00,
2013-04-09 13:21:00,61.7,33.1,30.33,East,96,3.1,3.1,34,0.00,,,0.00,VWS V13.01,2013-04-09 20:21:00,
2013-04-09 13:26:00,62.6,33.9,30.33,East,96,3.6,4.0,34,0.00,,,0.00,VWS V13.01,2013-04-09 20:26:00,
2013-04-09 13:31:00,62.1,33.4,30.33,East,96,0.0,0.0,34,0.00,,,0.00,VWS V13.01,2013-04-09 20:31:00,
2013-04-09 13:36:00,62.8,34.0,30.36,East,96,3.1,3.1,34,0.00,,,0.00,VWS V13.01,2013-04-09 20:36:00,
2013-04-09 13:41:00,63.1,34.3,30.36,East,96,0.0,0.0,34,0.00,,,0.00,VWS V13.01,2013-04-09 20:41:00,
2013-04-09 13:46:00,63.5,34.7,30.36,East,96,4.0,4.0,34,0.00,,,0.00,VWS V13.01,2013-04-09 20:46:00,
2013-04-09 13:51:00,63.3,34.5,30.33,East,96,0.0,0.0,34,0.00,,,0.00,VWS V13.01,2013-04-09 20:51:00,
2013-04-09 13:56:00,64.0,35.1,30.33,East,96,0.0,0.0,34,0.00,,,0.00,VWS V13.01,2013-04-09 20:56:00,
2013-04-09 14:01:00,64.0,35.1,30.33,East,96,8.1,8.3,34,0.00,,,0.00,VWS V13.01,2013-04-09 21:01:00,
2013-04-09 14:06:00,63.3,34.5,30.33,East,96,5.8,6.3,34,0.00,,,0.00,VWS V13.01,2013-04-09 21:06:00,
2013-04-09 14:12:00,63.1,34.3,30.33,East,96,2.7,4.9,34,0.00,,,0.00,VWS V13.01,2013-04-09 21:12:00,
2013-04-09 14:17:00,63.7,34.8,30.33,East,96,3.1,3.6,34,0.00,,,0.00,VWS V13.01,2013-04-09 21:17:00,
2013-04-09 14:22:00,64.6,34.8,30.33,East,96,4.5,4.9,33,0.00,,,0.00,VWS V13.01,2013-04-09 21:22:00,
2013-04-09 14:27:00,64.4,34.7,30.33,East,96,3.1,3.6,33,0.00,,,0.00,VWS V13.01,2013-04-09 21:27:00,
2013-04-09 14:32:00,63.9,35.0,30.33,East,96,3.6,5.8,34,0.00,,,0.00,VWS V13.01,2013-04-09 21:32:00,
2013-04-09 14:37:00,62.4,33.7,30.33,East,96,5.8,5.8,34,0.00,,,0.00,VWS V13.01,2013-04-09 21:37:00,
2013-04-09 14:42:00,61.9,33.2,30.33,East,96,5.4,5.4,34,0.00,,,0.00,VWS V13.01,2013-04-09 21:42:00,
2013-04-09 14:47:00,60.6,32.8,30.33,East,96,5.8,5.8,35,0.00,,,0.00,VWS V13.01,2013-04-09 21:47:00,
2013-04-09 14:52:00,60.8,32.3,30.33,East,96,6.3,6.3,34,0.00,,,0.00,VWS V13.01,2013-04-09 21:52:00,
2013-04-09 14:57:00,60.6,32.8,30.33,East,96,6.3,6.3,35,0.00,,,0.00,VWS V13.01,2013-04-09 21:57:00,
2013-04-09 15:02:00,61.0,32.4,30.33,East,96,4.9,5.8,34,0.00,,,0.00,VWS V13.01,2013-04-09 22:02:00,
2013-04-09 15:07:00,59.7,32.0,30.33,East,96,7.6,7.6,35,0.00,,,0.00,VWS V13.01,2013-04-09 22:07:00,
2013-04-09 15:12:00,59.7,32.0,30.33,East,96,5.4,6.3,35,0.00,,,0.00,VWS V13.01,2013-04-09 22:12:00,
2013-04-09 15:17:00,60.3,32.5,30.33,East,96,5.4,6.7,35,0.00,,,0.00,VWS V13.01,2013-04-09 22:17:00,
2013-04-09 15:22:00,60.3,32.5,30.33,ENE,77,5.4,6.3,35,0.00,,,0.00,VWS V13.01,2013-04-09 22:22:00,
2013-04-09 15:27:00,59.4,31.7,30.33,ENE,77,5.4,5.8,35,0.00,,,0.00,VWS V13.01,2013-04-09 22:27:00,
2013-04-09 15:32:00,59.5,31.9,30.33,NNE,15,7.6,8.7,35,0.00,,,0.00,VWS V13.01,2013-04-09 22:32:00,
2013-04-09 15:37:00,59.9,32.2,30.33,NNE,21,3.6,5.4,35,0.00,,,0.00,VWS V13.01,2013-04-09 22:37:00,
2013-04-09 15:42:00,59.5,31.9,30.33,North,357,7.6,7.6,35,0.00,,,0.00,VWS V13.01,2013-04-09 22:42:00,
2013-04-09 15:47:00,59.4,31.7,30.33,NW,325,3.6,4.0,35,0.00,,,0.00,VWS V13.01,2013-04-09 22:47:00,
2013-04-09 15:52:00,59.4,31.7,30.33,NNE,28,3.1,3.1,35,0.00,,,0.00,VWS V13.01,2013-04-09 22:52:00,
2013-04-09 15:57:00,59.4,31.7,30.33,North,10,3.6,5.8,35,0.00,,,0.00,VWS V13.01,2013-04-09 22:57:00,
2013-04-09 16:02:00,60.1,32.4,30.33,NW,320,4.9,6.3,35,0.00,,,0.00,VWS V13.01,2013-04-09 23:02:00,
2013-04-09 16:07:00,60.4,32.7,30.33,NW,320,4.0,4.0,35,0.00,,,0.00,VWS V13.01,2013-04-09 23:07:00,
2013-04-09 16:12:00,61.0,32.4,30.33,NW,318,4.9,4.9,34,0.00,,,0.00,VWS V13.01,2013-04-09 23:12:00,
2013-04-09 16:17:00,61.0,32.4,30.33,NW,320,7.6,7.6,34,0.00,,,0.00,VWS V13.01,2013-04-09 23:17:00,
2013-04-09 16:22:00,60.3,32.5,30.33,NNW,337,6.3,8.1,35,0.00,,,0.00,VWS V13.01,2013-04-09 23:22:00,
2013-04-09 16:27:00,60.1,32.4,30.33,North,0,3.6,3.6,35,0.00,,,0.00,VWS V13.01,2013-04-09 23:27:00,
2013-04-09 16:32:00,59.7,32.0,30.33,North,0,6.3,6.3,35,0.00,,,0.00,VWS V13.01,2013-04-09 23:32:00,
2013-04-09 16:37:00,59.7,32.0,30.33,NW,311,3.1,4.9,35,0.00,,,0.00,VWS V13.01,2013-04-09 23:37:00,
2013-04-09 16:42:00,59.7,32.0,30.33,NNW,338,7.6,8.1,35,0.00,,,0.00,VWS V13.01,2013-04-09 23:42:00,
2013-04-09 16:47:00,60.4,32.7,30.33,NW,320,5.4,5.4,35,0.00,,,0.00,VWS V13.01,2013-04-09 23:47:00,
2013-04-09 16:53:00,59.9,32.2,30.33,North,2,6.3,6.3,35,0.00,,,0.00,VWS V13.01,2013-04-09 23:53:00,
2013-04-09 16:58:00,59.9,32.2,30.33,NNW,335,3.1,5.4,35,0.00,,,0.00,VWS V13.01,2013-04-09 23:58:00,
2013-04-09 17:03:00,59.7,32.0,30.33,NNE,15,4.9,5.8,35,0.00,,,0.00,VWS V13.01,2013-04-10 00:03:00,
2013-04-09 17:08:00,60.4,32.7,30.33,NNE,15,6.7,6.7,35,0.00,,,0.00,VWS V13.01,2013-04-10 00:08:00,
2013-04-09 17:13:00,60.8,32.3,30.33,NNW,341,6.3,6.3,34,0.00,,,0.00,VWS V13.01,2013-04-10 00:13:00,
2013-04-09 17:18:00,59.5,31.9,30.33,NNW,341,5.4,6.3,35,0.00,,,0.00,VWS V13.01,2013-04-10 00:18:00,
2013-04-09 17:23:00,59.2,31.6,30.33,NNW,340,5.8,5.8,35,0.00,,,0.00,VWS V13.01,2013-04-10 00:23:00,
2013-04-09 17:28:00,59.2,31.6,30.33,NNW,341,3.1,5.4,35,0.00,,,0.00,VWS V13.01,2013-04-10 00:28:00,
2013-04-09 17:33:00,59.7,32.0,30.33,NNW,341,3.6,4.9,35,0.00,,,0.00,VWS V13.01,2013-04-10 00:33:00,
2013-04-09 17:38:00,60.8,32.3,30.33,NNW,341,4.0,4.0,34,0.00,,,0.00,VWS V13.01,2013-04-10 00:38:00,
2013-04-09 17:43:00,62.1,33.4,30.33,NNW,341,4.9,4.9,34,0.00,,,0.00,VWS V13.01,2013-04-10 00:43:00,
2013-04-09 17:48:00,63.0,34.2,30.33,NNW,341,3.1,3.1,34,0.00,,,0.00,VWS V13.01,2013-04-10 00:48:00,
2013-04-09 17:53:00,62.6,33.9,30.33,NNW,341,3.1,3.6,34,0.00,,,0.00,VWS V13.01,2013-04-10 00:53:00,
2013-04-09 17:58:00,62.2,33.5,30.33,NNW,341,4.9,5.4,34,0.00,,,0.00,VWS V13.01,2013-04-10 00:58:00,
2013-04-09 18:03:00,61.7,33.1,30.33,NNW,341,4.0,4.9,34,0.00,,,0.00,VWS V13.01,2013-04-10 01:03:00,
2013-04-09 18:09:00,61.3,32.8,30.33,WNW,302,4.9,6.3,34,0.00,,,0.00,VWS V13.01,2013-04-10 01:09:00,
2013-04-09 18:14:00,60.8,32.3,30.33,NW,316,3.6,3.6,34,0.00,,,0.00,VWS V13.01,2013-04-10 01:14:00,
2013-04-09 18:19:00,61.0,32.4,30.33,NW,314,3.6,3.6,34,0.00,,,0.00,VWS V13.01,2013-04-10 01:19:00,
2013-04-09 18:24:00,60.4,32.7,30.33,NW,308,4.9,4.9,35,0.00,,,0.00,VWS V13.01,2013-04-10 01:24:00,
2013-04-09 18:29:00,59.9,32.2,30.33,NW,309,3.1,3.1,35,0.00,,,0.00,VWS V13.01,2013-04-10 01:29:00,
2013-04-09 18:34:00,59.4,31.7,30.33,NW,309,5.8,5.8,35,0.00,,,0.00,VWS V13.01,2013-04-10 01:34:00,
2013-04-09 18:39:00,59.2,31.6,30.33,NW,310,0.0,0.0,35,0.00,,,0.00,VWS V13.01,2013-04-10 01:39:00,
2013-04-09 18:44:00,59.2,31.6,30.33,NW,309,3.6,3.6,35,0.00,,,0.00,VWS V13.01,2013-04-10 01:44:00,
2013-04-09 18:49:00,58.3,30.8,30.33,NW,310,4.0,4.0,35,0.00,,,0.00,VWS V13.01,2013-04-10 01:49:00,
2013-04-09 18:54:00,57.2,29.8,30.33,NW,309,3.6,3.6,35,0.00,,,0.00,VWS V13.01,2013-04-10 01:54:00,
2013-04-09 18:59:00,56.5,29.2,30.33,NW,309,3.6,3.6,35,0.00,,,0.00,VWS V13.01,2013-04-10 01:59:00,
2013-04-09 19:04:00,56.1,28.9,30.30,NW,309,4.5,4.5,35,0.00,,,0.00,VWS V13.01,2013-04-10 02:04:00,
2013-04-09 19:09:00,56.3,29.7,30.30,NW,309,2.7,2.7,36,0.00,,,0.00,VWS V13.01,2013-04-10 02:09:00,
2013-04-09 19:14:00,55.9,29.4,30.30,NW,310,3.1,3.1,36,0.00,,,0.00,VWS V13.01,2013-04-10 02:14:00,
2013-04-09 19:19:00,55.4,28.9,30.30,NW,310,3.6,3.6,36,0.00,,,0.00,VWS V13.01,2013-04-10 02:19:00,
2013-04-09 19:24:00,55.2,28.8,30.30,NW,309,4.5,4.5,36,0.00,,,0.00,VWS V13.01,2013-04-10 02:24:00,
2013-04-09 19:29:00,55.6,29.1,30.30,NW,310,3.6,3.6,36,0.00,,,0.00,VWS V13.01,2013-04-10 02:29:00,
2013-04-09 19:34:00,55.0,28.6,30.30,NW,310,2.7,2.7,36,0.00,,,0.00,VWS V13.01,2013-04-10 02:34:00,
2013-04-09 19:39:00,54.9,28.4,30.30,NW,310,0.0,0.0,36,0.00,,,0.00,VWS V13.01,2013-04-10 02:39:00,
2013-04-09 19:44:00,54.7,28.3,30.30,NW,310,3.1,3.1,36,0.00,,,0.00,VWS V13.01,2013-04-10 02:44:00,
2013-04-09 19:49:00,54.5,28.1,30.30,NW,310,2.2,2.2,36,0.00,,,0.00,VWS V13.01,2013-04-10 02:49:00,
2013-04-09 19:54:00,54.1,27.8,30.30,NW,310,0.0,0.0,36,0.00,,,0.00,VWS V13.01,2013-04-10 02:54:00,
2013-04-09 19:59:00,54.0,27.6,30.30,NW,310,0.0,0.0,36,0.00,,,0.00,VWS V13.01,2013-04-10 02:59:00,
2013-04-09 20:04:00,53.6,27.3,30.30,NW,310,0.0,0.0,36,0.00,,,0.00,VWS V13.01,2013-04-10 03:04:00,
2013-04-09 20:09:00,53.4,27.8,30.30,NW,310,0.0,0.0,37,0.00,,,0.00,VWS V13.01,2013-04-10 03:09:00,
2013-04-09 20:14:00,53.2,27.7,30.30,NW,310,0.0,0.0,37,0.00,,,0.00,VWS V13.01,2013-04-10 03:14:00,
2013-04-09 20:19:00,52.9,27.3,30.30,NW,310,0.0,0.0,37,0.00,,,0.00,VWS V13.01,2013-04-10 03:19:00,
2013-04-09 20:24:00,52.9,27.3,30.30,NW,310,0.0,0.0,37,0.00,,,0.00,VWS V13.01,2013-04-10 03:24:00,
2013-04-09 20:29:00,52.7,27.2,30.30,NW,310,0.0,0.0,37,0.00,,,0.00,VWS V13.01,2013-04-10 03:29:00,
2013-04-09 20:34:00,52.3,26.9,30.30,NW,309,0.0,0.0,37,0.00,,,0.00,VWS V13.01,2013-04-10 03:34:00,
2013-04-09 20:39:00,51.8,26.4,30.30,NW,310,0.0,0.0,37,0.00,,,0.00,VWS V13.01,2013-04-10 03:39:00,
2013-04-09 20:44:00,51.6,26.2,30.30,NW,310,2.7,2.7,37,0.00,,,0.00,VWS V13.01,2013-04-10 03:44:00,
2013-04-09 20:49:00,51.1,26.4,30.30,NW,310,2.2,2.2,38,0.00,,,0.00,VWS V13.01,2013-04-10 03:49:00,
2013-04-09 20:54:00,50.9,26.2,30.30,NW,310,0.0,0.0,38,0.00,,,0.00,VWS V13.01,2013-04-10 03:54:00,
2013-04-09 20:59:00,50.5,25.9,30.30,NW,310,0.0,0.0,38,0.00,,,0.00,VWS V13.01,2013-04-10 03:59:00,
2013-04-09 21:00:00,50.5,25.9,30.30,NW,310,0.0,0.0,38,0.00,,,0.00,VWS V13.01,2013-04-10 04:00:00,
2013-04-09 21:05:00,50.4,25.7,30.30,NW,310,0.0,0.0,38,0.00,,,0.00,VWS V13.01,2013-04-10 04:05:00,
2013-04-09 21:10:00,50.0,25.4,30.30,NW,310,0.0,0.0,38,0.00,,,0.00,VWS V13.01,2013-04-10 04:10:00,
2013-04-09 21:15:00,49.8,25.9,30.30,NW,310,0.0,0.0,39,0.00,,,0.00,VWS V13.01,2013-04-10 04:15:00,
2013-04-09 21:20:00,49.5,26.2,30.30,NW,310,0.0,0.0,40,0.00,,,0.00,VWS V13.01,2013-04-10 04:20:00,
2013-04-09 21:25:00,49.5,26.8,30.30,NW,310,0.0,0.0,41,0.00,,,0.00,VWS V13.01,2013-04-10 04:25:00,
2013-04-09 21:30:00,49.1,27.6,30.30,NW,310,0.0,0.0,43,0.00,,,0.00,VWS V13.01,2013-04-10 04:30:00,
2013-04-09 21:35:00,49.1,27.6,30.33,NW,310,0.0,0.0,43,0.00,,,0.00,VWS V13.01,2013-04-10 04:35:00,
2013-04-09 21:40:00,49.1,27.6,30.33,NW,310,0.0,0.0,43,0.00,,,0.00,VWS V13.01,2013-04-10 04:40:00,
2013-04-09 21:45:00,49.1,28.1,30.33,NW,310,0.0,0.0,44,0.00,,,0.00,VWS V13.01,2013-04-10 04:45:00,
2013-04-09 21:50:00,48.9,28.0,30.33,NW,310,2.7,2.7,44,0.00,,,0.00,VWS V13.01,2013-04-10 04:50:00,
2013-04-09 21:55:00,49.1,28.7,30.33,NW,310,0.0,0.0,45,0.00,,,0.00,VWS V13.01,2013-04-10 04:55:00,
2013-04-09 22:00:00,48.9,29.1,30.33,NW,309,0.0,0.0,46,0.00,,,0.00,VWS V13.01,2013-04-10 05:00:00,
2013-04-09 22:05:00,49.1,29.2,30.33,NW,310,2.7,3.1,46,0.00,,,0.00,VWS V13.01,2013-04-10 05:05:00,
2013-04-09 22:10:00,48.9,29.6,30.33,NW,310,0.0,0.0,47,0.00,,,0.00,VWS V13.01,2013-04-10 05:10:00,
2013-04-09 22:15:00,48.9,29.6,30.33,NW,310,0.0,0.0,47,0.00,,,0.00,VWS V13.01,2013-04-10 05:15:00,
2013-04-09 22:20:00,48.7,29.4,30.33,NW,310,0.0,0.0,47,0.00,,,0.00,VWS V13.01,2013-04-10 05:20:00,
2013-04-09 22:25:00,48.6,29.3,30.33,NW,310,0.0,0.0,47,0.00,,,0.00,VWS V13.01,2013-04-10 05:25:00,
2013-04-09 22:30:00,48.4,29.6,30.33,NW,310,0.0,0.0,48,0.00,,,0.00,VWS V13.01,2013-04-10 05:30:00,
2013-04-09 22:35:00,48.2,29.5,30.33,NW,310,0.0,0.0,48,0.00,,,0.00,VWS V13.01,2013-04-10 05:35:00,
2013-04-09 22:40:00,47.8,29.1,30.33,NW,310,0.0,0.0,48,0.00,,,0.00,VWS V13.01,2013-04-10 05:40:00,
2013-04-09 22:45:00,47.7,29.5,30.33,NW,310,0.0,0.0,49,0.00,,,0.00,VWS V13.01,2013-04-10 05:45:00,
2013-04-09 22:50:00,47.5,29.3,30.33,NW,310,3.1,3.1,49,0.00,,,0.00,VWS V13.01,2013-04-10 05:50:00,
2013-04-09 22:55:00,47.3,29.1,30.33,NW,310,5.4,5.4,49,0.00,,,0.00,VWS V13.01,2013-04-10 05:55:00,
2013-04-09 23:00:00,47.1,29.5,30.33,NW,309,4.0,4.0,50,0.00,,,0.00,VWS V13.01,2013-04-10 06:00:00,
2013-04-09 23:05:00,46.9,29.8,30.30,WNW,299,4.0,4.9,51,0.00,,,0.00,VWS V13.01,2013-04-10 06:05:00,
2013-04-09 23:10:00,46.8,29.6,30.30,WNW,299,3.6,3.6,51,0.00,,,0.00,VWS V13.01,2013-04-10 06:10:00,
2013-04-09 23:15:00,46.8,30.1,30.30,WNW,290,2.7,3.1,52,0.00,,,0.00,VWS V13.01,2013-04-10 06:15:00,
2013-04-09 23:20:00,46.6,29.9,30.30,WNW,290,3.1,3.6,52,0.00,,,0.00,VWS V13.01,2013-04-10 06:20:00,
2013-04-09 23:25:00,46.4,30.2,30.30,WNW,290,2.2,3.1,53,0.00,,,0.00,VWS V13.01,2013-04-10 06:25:00,
2013-04-09 23:30:00,46.2,30.0,30.30,WNW,290,0.0,0.0,53,0.00,,,0.00,VWS V13.01,2013-04-10 06:30:00,
2013-04-09 23:35:00,46.2,30.5,30.30,WNW,290,4.9,4.9,54,0.00,,,0.00,VWS V13.01,2013-04-10 06:35:00,
2013-04-09 23:40:00,46.0,30.3,30.30,WNW,290,2.2,4.0,54,0.00,,,0.00,VWS V13.01,2013-04-10 06:40:00,
2013-04-09 23:45:00,46.0,30.8,30.30,WNW,290,5.4,5.4,55,0.00,,,0.00,VWS V13.01,2013-04-10 06:45:00,
2013-04-09 23:50:00,46.0,30.8,30.30,WNW,290,0.0,2.7,55,0.00,,,0.00,VWS V13.01,2013-04-10 06:50:00,
2013-04-09 23:55:00,46.0,31.2,30.30,WNW,290,0.0,0.0,56,0.00,,,0.00,VWS V13.01,2013-04-10 06:55:00,